createdAt,value
2019-02-16T00:04:54.690Z,100.00
2019-02-16T00:09:12.831Z,100.00
2019-02-16T00:10:53.344Z,100.00
2019-02-16T00:12:41.495Z,100.00
2019-02-16T00:14:16.846Z,100.00
2019-02-16T00:16:11.492Z,100.00
2019-02-16T00:18:25.847Z,100.00
2019-02-16T00:22:39.732Z,100.00
2019-02-16T00:24:55.840Z,100.00
2019-02-16T00:33:21.330Z,100.00
2019-02-16T00:35:16.085Z,100.00
2019-02-16T00:37:03.113Z,100.00
2019-02-16T00:40:48.637Z,100.00
2019-02-16T00:42:24.648Z,100.00
2019-02-16T00:44:32.383Z,100.00
2019-02-16T00:50:11.358Z,100.00
2019-02-16T00:52:26.118Z,100.00
2019-02-16T00:54:01.525Z,100.00
2019-02-16T00:55:48.369Z,100.00
2019-02-16T00:57:38.528Z,100.00
2019-02-16T01:01:33.272Z,100.00
2019-02-16T01:07:30.607Z,100.00
2019-02-16T01:09:09.615Z,100.00
2019-02-16T01:13:10.793Z,100.00
2019-02-16T01:17:11.070Z,100.00
2019-02-16T01:23:12.230Z,100.00
2019-02-16T01:25:06.847Z,100.00
2019-02-16T01:26:42.085Z,100.00
2019-02-16T01:28:56.465Z,100.00
2019-02-16T01:31:23.918Z,100.00
2019-02-16T01:33:28.178Z,100.00
2019-02-16T01:37:23.114Z,100.00
2019-02-16T01:38:58.922Z,100.00
2019-02-16T01:41:13.355Z,100.00
2019-02-16T01:55:30.898Z,100.00
2019-02-16T01:59:46.946Z,100.00
2019-02-16T02:07:39.997Z,100.00
2019-02-16T02:09:15.427Z,100.00
2019-02-16T02:15:05.755Z,100.00
2019-02-16T02:16:41.281Z,100.00
2019-02-16T02:18:16.772Z,100.00
2019-02-16T02:19:51.913Z,100.00
2019-02-16T02:26:25.652Z,100.00
2019-02-16T02:28:11.296Z,100.00
2019-02-16T02:29:47.655Z,100.00
2019-02-16T02:31:23.156Z,100.00
2019-02-16T02:32:58.318Z,100.00
2019-02-16T02:35:12.771Z,100.00
2019-02-16T02:39:19.340Z,100.00
2019-02-16T02:40:54.589Z,100.00
2019-02-16T02:43:20.492Z,100.00
2019-02-16T02:45:36.743Z,100.00
2019-02-16T02:47:02.297Z,100.00
2019-02-16T02:48:37.690Z,100.00
2019-02-16T02:50:13.046Z,100.00
2019-02-16T02:51:52.334Z,100.00
2019-02-16T02:55:39.850Z,100.00
2019-02-16T02:57:34.050Z,100.00
2019-02-16T02:59:11.732Z,100.00
2019-02-16T03:00:54.363Z,100.00
2019-02-16T03:02:37.393Z,100.00
2019-02-16T03:04:12.876Z,100.00
2019-02-16T03:05:48.236Z,100.00
2019-02-16T03:08:02.962Z,100.00
2019-02-16T03:09:50.161Z,100.00
2019-02-16T03:11:36.904Z,100.00
2019-02-16T03:13:12.212Z,100.00
2019-02-16T03:14:47.617Z,100.00
2019-02-16T03:16:22.713Z,100.00
2019-02-16T03:17:57.860Z,100.00
2019-02-16T03:19:34.818Z,100.00
2019-02-16T03:21:10.318Z,100.00
2019-02-16T03:23:23.423Z,100.00
2019-02-16T03:25:37.973Z,100.00
2019-02-16T03:30:17.652Z,100.00
2019-02-16T03:32:30.952Z,100.00
2019-02-16T03:34:41.432Z,100.00
2019-02-16T03:36:42.309Z,100.00
2019-02-16T03:43:09.965Z,100.00
2019-02-16T03:44:57.241Z,100.00
2019-02-16T03:49:03.492Z,100.00
2019-02-16T03:50:38.867Z,100.00
2019-02-16T03:52:14.420Z,100.00
2019-02-16T03:53:49.592Z,100.00
2019-02-16T03:56:04.041Z,100.00
2019-02-16T04:00:09.252Z,100.00
2019-02-16T04:04:04.252Z,100.00
2019-02-16T04:05:58.358Z,100.00
2019-02-16T04:07:35.329Z,100.00
2019-02-16T04:11:09.568Z,100.00
2019-02-16T04:14:34.430Z,100.00
2019-02-16T04:20:24.241Z,100.00
2019-02-16T04:22:01.107Z,100.00
2019-02-16T04:25:44.709Z,100.00
2019-02-16T04:27:31.698Z,100.00
2019-02-16T04:31:29.177Z,100.00
2019-02-16T04:33:05.714Z,100.00
2019-02-16T04:34:59.941Z,100.00
2019-02-16T04:36:37.130Z,100.00
2019-02-16T04:40:31.657Z,100.00
2019-02-16T04:42:18.408Z,100.00
2019-02-16T04:43:53.619Z,100.00
2019-02-16T04:45:28.765Z,100.00
2019-02-16T04:47:03.932Z,100.00
2019-02-16T04:48:39.011Z,100.00
2019-02-16T04:50:14.497Z,100.00
2019-02-16T04:51:49.618Z,100.00
2019-02-16T04:53:26.941Z,100.00
2019-02-16T04:55:05.282Z,100.00
2019-02-16T04:56:40.519Z,100.00
2019-02-16T04:58:34.714Z,100.00
2019-02-16T05:00:25.508Z,100.00
2019-02-16T05:01:48.673Z,100.00
2019-02-16T05:03:46.137Z,100.00
2019-02-16T05:05:21.397Z,100.00
2019-02-16T05:06:56.979Z,100.00
2019-02-16T05:09:11.298Z,100.00
2019-02-16T05:13:18.797Z,100.00
2019-02-16T05:14:43.970Z,100.00
2019-02-16T05:16:19.132Z,100.00
2019-02-16T05:18:33.801Z,100.00
2019-02-16T05:20:28.202Z,100.00
2019-02-16T05:22:45.998Z,100.00
2019-02-16T05:24:23.331Z,100.00
2019-02-16T05:26:03.322Z,100.00
2019-02-16T05:27:38.679Z,100.00
2019-02-16T05:29:14.036Z,100.00
2019-02-16T05:35:36.639Z,100.00
2019-02-16T05:37:30.966Z,100.00
2019-02-16T05:39:07.940Z,100.00
2019-02-16T05:41:02.130Z,100.00
2019-02-16T05:44:33.697Z,100.00
2019-02-16T05:48:28.787Z,100.00
2019-02-16T05:50:43.244Z,100.00
2019-02-16T05:54:20.346Z,100.00
2019-02-16T05:55:57.643Z,100.00
2019-02-16T05:57:34.429Z,100.00
2019-02-16T05:59:28.616Z,100.00
2019-02-16T06:01:35.835Z,100.00
2019-02-16T06:09:56.686Z,100.00
2019-02-16T06:11:32.056Z,100.00
2019-02-16T06:13:07.779Z,100.00
2019-02-16T06:14:43.251Z,100.00
2019-02-16T06:16:19.220Z,100.00
2019-02-16T06:18:34.187Z,100.00
2019-02-16T06:20:20.745Z,100.00
2019-02-16T06:23:59.941Z,100.00
2019-02-16T06:25:35.198Z,100.00
2019-02-16T06:27:10.323Z,100.00
2019-02-16T06:28:45.559Z,100.00
2019-02-16T06:30:20.604Z,100.00
2019-02-16T06:31:56.032Z,100.00
2019-02-16T06:33:50.370Z,100.00
2019-02-16T06:36:05.103Z,100.00
2019-02-16T06:37:52.627Z,100.00
2019-02-16T06:48:09.252Z,100.00
2019-02-16T06:50:03.473Z,100.00
2019-02-16T06:53:39.959Z,100.00
2019-02-16T06:59:42.097Z,100.00
2019-02-16T07:01:20.419Z,100.00
2019-02-16T07:02:56.850Z,100.00
2019-02-16T07:04:34.201Z,100.00
2019-02-16T07:06:09.262Z,100.00
2019-02-16T07:07:44.477Z,100.00
2019-02-16T07:09:22.918Z,100.00
2019-02-16T07:11:06.193Z,100.00
2019-02-16T07:12:47.431Z,100.00
2019-02-16T07:16:38.792Z,100.00
2019-02-16T07:22:22.754Z,100.00
2019-02-16T07:27:56.360Z,100.00
2019-02-16T07:29:31.760Z,100.00
2019-02-16T07:31:21.986Z,100.00
2019-02-16T07:33:36.701Z,100.00
2019-02-16T07:37:49.454Z,100.00
2019-02-16T07:39:35.572Z,100.00
2019-02-16T07:41:50.715Z,100.00
2019-02-16T07:43:56.927Z,100.00
2019-02-16T07:48:05.794Z,100.00
2019-02-16T07:49:54.732Z,100.00
2019-02-16T07:51:49.749Z,100.00
2019-02-16T07:53:52.728Z,100.00
2019-02-16T07:55:41.255Z,100.00
2019-02-16T07:57:37.339Z,100.00
2019-02-16T07:59:34.844Z,100.00
2019-02-16T08:01:23.685Z,100.00
2019-02-16T08:03:18.069Z,100.00
2019-02-16T08:05:22.747Z,100.00
2019-02-16T08:07:14.252Z,100.00
2019-02-16T08:08:56.012Z,100.00
2019-02-16T08:11:04.145Z,100.00
2019-02-16T08:13:08.180Z,100.00
2019-02-16T08:15:08.148Z,100.00
2019-02-16T08:19:37.760Z,100.00
2019-02-16T08:25:51.908Z,100.00
2019-02-16T08:27:59.436Z,100.00
2019-02-16T08:29:53.405Z,100.00
2019-02-16T08:31:46.098Z,100.00
2019-02-16T08:33:36.401Z,100.00
2019-02-16T08:35:47.726Z,100.00
2019-02-16T08:37:47.544Z,100.00
2019-02-16T08:39:54.168Z,100.00
2019-02-16T08:41:48.345Z,100.00
2019-02-16T08:43:40.679Z,100.00
2019-02-16T08:45:42.490Z,100.00
2019-02-16T08:47:28.958Z,100.00
2019-02-16T08:49:36.448Z,100.00
2019-02-16T08:55:48.337Z,100.00
2019-02-16T08:57:54.056Z,100.00
2019-02-16T08:59:49.170Z,100.00
2019-02-16T09:02:02.083Z,100.00
2019-02-16T09:08:32.256Z,100.00
2019-02-16T09:10:45.159Z,100.00
2019-02-16T09:16:54.667Z,100.00
2019-02-16T09:21:14.830Z,100.00
2019-02-16T09:23:16.017Z,100.00
2019-02-16T09:25:32.115Z,100.00
2019-02-16T09:31:12.774Z,100.00
2019-02-16T09:33:07.583Z,100.00
2019-02-16T09:35:08.294Z,100.00
2019-02-16T09:39:33.727Z,100.00
2019-02-16T09:43:42.253Z,100.00
2019-02-16T09:47:58.572Z,100.00
2019-02-16T09:54:39.028Z,100.00
2019-02-16T09:56:35.371Z,100.00
2019-02-16T10:00:57.113Z,100.00
2019-02-16T10:02:56.596Z,100.00
2019-02-16T10:05:37.044Z,100.00
2019-02-16T10:10:20.916Z,100.00
2019-02-16T10:12:24.402Z,100.00
2019-02-16T10:17:29.675Z,100.00
2019-02-16T10:17:41.646Z,100.00
2019-02-16T10:19:55.337Z,100.00
2019-02-16T10:22:03.686Z,100.00
2019-02-16T10:24:17.575Z,100.00
2019-02-16T10:26:16.797Z,100.00
2019-02-16T10:28:10.379Z,100.00
2019-02-16T10:30:05.084Z,100.00
2019-02-16T10:32:00.493Z,100.00
2019-02-16T10:33:51.630Z,100.00
2019-02-16T10:35:48.661Z,100.00
2019-02-16T10:37:44.038Z,100.00
2019-02-16T10:39:36.784Z,100.00
2019-02-16T10:41:40.509Z,100.00
2019-02-16T10:43:28.271Z,100.00
2019-02-16T10:45:20.324Z,100.00
2019-02-16T10:47:25.234Z,100.00
2019-02-16T10:49:31.609Z,100.00
2019-02-16T10:51:37.977Z,100.00
2019-02-16T10:53:45.815Z,100.00
2019-02-16T10:55:50.183Z,100.00
2019-02-16T10:57:56.308Z,100.00
2019-02-16T11:00:06.267Z,100.00
2019-02-16T11:02:09.187Z,100.00
2019-02-16T11:03:55.987Z,100.00
2019-02-16T11:05:56.419Z,100.00
2019-02-16T11:07:49.025Z,100.00
2019-02-16T11:09:48.339Z,100.00
2019-02-16T11:11:51.012Z,100.00
2019-02-16T11:14:03.328Z,100.00
2019-02-16T11:16:02.172Z,100.00
2019-02-16T11:17:55.903Z,100.00
2019-02-16T11:19:44.660Z,100.00
2019-02-16T11:21:49.009Z,100.00
2019-02-16T11:23:49.485Z,100.00
2019-02-16T11:25:39.748Z,100.00
2019-02-16T11:27:45.783Z,100.00
2019-02-16T11:29:43.284Z,100.00
2019-02-16T11:31:51.123Z,100.00
2019-02-16T11:33:57.077Z,100.00
2019-02-16T11:36:00.263Z,100.00
2019-02-16T11:38:09.065Z,100.00
2019-02-16T11:40:09.175Z,97.20
2019-02-16T11:41:54.321Z,78.21
2019-02-16T11:43:56.583Z,71.64
2019-02-16T11:45:47.140Z,67.88
2019-02-16T11:47:40.832Z,66.38
2019-02-16T11:49:31.636Z,68.06
2019-02-16T11:51:27.806Z,67.82
2019-02-16T11:53:21.265Z,66.17
2019-02-16T11:55:08.436Z,66.03
2019-02-16T11:57:01.025Z,66.21
2019-02-16T11:59:14.283Z,65.38
2019-02-16T12:01:20.104Z,65.24
2019-02-16T12:03:19.270Z,62.41
2019-02-16T12:05:25.717Z,62.68
2019-02-16T12:07:36.559Z,64.52
2019-02-16T12:09:28.873Z,61.67
2019-02-16T12:11:24.854Z,61.85
2019-02-16T12:13:20.487Z,61.75
2019-02-16T12:15:22.752Z,60.90
2019-02-16T12:17:16.536Z,62.44
2019-02-16T12:19:09.215Z,63.03
2019-02-16T12:21:09.358Z,62.34
2019-02-16T12:23:08.183Z,61.38
2019-02-16T12:25:05.796Z,61.47
2019-02-16T12:27:01.376Z,62.52
2019-02-16T12:28:58.650Z,64.56
2019-02-16T12:30:59.367Z,64.20
2019-02-16T12:32:59.888Z,65.80
2019-02-16T12:34:55.571Z,66.13
2019-02-16T12:36:48.738Z,65.93
2019-02-16T12:38:43.338Z,65.68
2019-02-16T12:40:42.363Z,65.29
2019-02-16T12:42:40.805Z,67.15
2019-02-16T12:44:35.174Z,65.66
2019-02-16T12:46:29.729Z,66.65
2019-02-16T12:48:46.162Z,68.18
2019-02-16T12:50:44.986Z,67.42
2019-02-16T12:52:34.087Z,68.71
2019-02-16T12:54:42.169Z,67.10
2019-02-16T12:56:36.445Z,68.57
2019-02-16T12:58:52.123Z,70.44
2019-02-16T13:00:45.456Z,69.15
2019-02-16T13:02:34.920Z,69.81
2019-02-16T13:04:48.353Z,71.60
2019-02-16T13:06:44.814Z,71.25
2019-02-16T13:08:34.157Z,70.68
2019-02-16T13:10:30.240Z,72.59
2019-02-16T13:12:35.235Z,73.84
2019-02-16T13:14:37.311Z,73.89
2019-02-16T13:16:52.633Z,73.38
2019-02-16T13:18:51.145Z,77.23
2019-02-16T13:21:02.819Z,76.22
2019-02-16T13:22:54.278Z,77.86
2019-02-16T13:24:56.044Z,74.07
2019-02-16T13:27:02.247Z,75.31
2019-02-16T13:29:07.951Z,75.67
2019-02-16T13:31:07.967Z,75.85
2019-02-16T13:32:57.111Z,79.51
2019-02-16T13:34:57.520Z,76.52
2019-02-16T13:36:41.196Z,76.62
2019-02-16T13:38:26.137Z,74.80
2019-02-16T13:40:22.433Z,76.67
2019-02-16T13:42:25.156Z,76.91
2019-02-16T13:44:23.314Z,74.93
2019-02-16T13:46:37.059Z,72.68
2019-02-16T13:48:46.051Z,73.82
2019-02-16T13:50:46.455Z,70.25
2019-02-16T13:52:39.159Z,68.51
2019-02-16T13:59:12.456Z,68.16
2019-02-16T14:03:24.338Z,61.19
2019-02-16T14:05:05.618Z,60.90
2019-02-16T14:06:49.625Z,59.21
2019-02-16T14:08:38.231Z,57.66
2019-02-16T14:10:41.554Z,56.43
2019-02-16T14:12:43.131Z,58.72
2019-02-16T14:14:37.391Z,59.41
2019-02-16T14:16:30.416Z,62.35
2019-02-16T14:18:12.861Z,62.20
2019-02-16T14:19:54.746Z,64.34
2019-02-16T14:21:36.213Z,63.29
2019-02-16T14:23:12.289Z,64.02
2019-02-16T14:24:54.074Z,64.42
2019-02-16T14:26:30.124Z,64.98
2019-02-16T14:28:09.839Z,66.02
2019-02-16T14:29:45.296Z,68.29
2019-02-16T14:31:28.375Z,66.52
2019-02-16T14:33:00.695Z,65.98
2019-02-16T14:34:39.145Z,67.29
2019-02-16T14:36:17.495Z,69.64
2019-02-16T14:38:29.137Z,68.66
2019-02-16T14:40:10.870Z,69.33
2019-02-16T14:41:47.307Z,69.02
2019-02-16T14:43:29.716Z,68.44
2019-02-16T14:45:15.484Z,69.18
2019-02-16T14:47:13.733Z,69.87
2019-02-16T14:48:51.231Z,70.63
2019-02-16T14:50:26.453Z,71.89
2019-02-16T14:52:04.615Z,73.49
2019-02-16T14:53:44.918Z,74.40
2019-02-16T14:55:34.165Z,74.52
2019-02-16T14:57:09.396Z,74.14
2019-02-16T14:58:44.815Z,74.67
2019-02-16T15:00:21.020Z,75.92
2019-02-16T15:01:56.244Z,76.68
2019-02-16T15:03:33.309Z,76.12
2019-02-16T15:05:09.434Z,79.20
2019-02-16T15:06:47.898Z,77.75
2019-02-16T15:08:23.218Z,79.54
2019-02-16T15:09:58.766Z,78.00
2019-02-16T15:11:36.545Z,77.61
2019-02-16T15:13:12.393Z,78.83
2019-02-16T15:14:49.984Z,78.43
2019-02-16T15:16:28.615Z,76.46
2019-02-16T15:18:05.951Z,77.90
2019-02-16T15:19:42.719Z,78.86
2019-02-16T15:21:19.720Z,79.54
2019-02-16T15:23:03.432Z,79.25
2019-02-16T15:24:41.714Z,79.44
2019-02-16T15:26:16.777Z,79.61
2019-02-16T15:27:52.157Z,79.28
2019-02-16T15:32:11.898Z,80.00
2019-02-16T15:36:05.031Z,79.95
2019-02-16T15:37:51.730Z,81.02
2019-02-16T15:44:04.647Z,80.25
2019-02-16T15:45:51.703Z,79.96
2019-02-16T15:57:36.532Z,82.98
2019-02-16T15:59:24.998Z,83.84
2019-02-16T16:01:30.950Z,84.51
2019-02-16T16:05:13.444Z,85.17
2019-02-16T16:09:42.579Z,85.67
2019-02-16T16:11:55.432Z,85.46
2019-02-16T16:13:52.161Z,85.23
2019-02-16T16:15:57.366Z,85.59
2019-02-16T16:17:56.120Z,86.66
2019-02-16T16:19:54.417Z,88.42
2019-02-16T16:21:51.822Z,88.75
2019-02-16T16:23:47.043Z,89.48
2019-02-16T16:25:41.529Z,89.90
2019-02-16T16:27:35.546Z,90.62
2019-02-16T16:29:41.139Z,92.25
2019-02-16T16:31:24.800Z,93.60
2019-02-16T16:33:21.191Z,95.60
2019-02-16T16:35:23.410Z,97.64
2019-02-16T16:37:32.806Z,98.61
2019-02-16T16:39:27.909Z,99.86
2019-02-16T16:41:37.041Z,100.00
2019-02-16T16:46:05.311Z,100.00
2019-02-16T16:47:59.389Z,100.00
2019-02-16T16:49:45.965Z,100.00
2019-02-16T16:52:01.527Z,100.00
2019-02-16T16:56:42.274Z,100.00
2019-02-16T17:04:06.089Z,100.00
2019-02-16T17:10:41.640Z,100.00
2019-02-16T17:12:47.204Z,100.00
2019-02-16T17:17:39.389Z,100.00
2019-02-16T17:20:03.229Z,100.00
2019-02-16T17:22:07.256Z,100.00
2019-02-16T17:24:35.257Z,100.00
2019-02-16T17:26:18.479Z,100.00
2019-02-16T17:28:13.472Z,100.00
2019-02-16T17:30:29.972Z,100.00
2019-02-16T17:32:28.555Z,100.00
2019-02-16T17:34:36.915Z,100.00
2019-02-16T17:36:39.271Z,100.00
2019-02-16T17:38:39.577Z,100.00
2019-02-16T17:40:49.369Z,100.00
2019-02-16T17:42:37.559Z,100.00
2019-02-16T17:44:38.635Z,100.00
2019-02-16T17:49:06.117Z,100.00
2019-02-16T17:51:08.510Z,100.00
2019-02-16T17:55:17.192Z,100.00
2019-02-16T17:59:21.027Z,100.00
2019-02-16T18:01:24.097Z,100.00
2019-02-16T18:03:20.755Z,100.00
2019-02-16T18:05:20.673Z,100.00
2019-02-16T18:07:34.375Z,100.00
2019-02-16T18:09:28.317Z,100.00
2019-02-16T18:11:51.217Z,100.00
2019-02-16T18:13:52.855Z,100.00
2019-02-16T18:16:10.064Z,100.00
2019-02-16T18:20:30.628Z,100.00
2019-02-16T18:22:37.052Z,100.00
2019-02-16T18:24:31.569Z,100.00
2019-02-16T18:28:25.466Z,100.00
2019-02-16T18:30:57.496Z,100.00
2019-02-16T18:33:12.065Z,100.00
2019-02-16T18:35:08.509Z,100.00
2019-02-16T18:41:56.614Z,100.00
2019-02-16T18:46:31.275Z,100.00
2019-02-16T18:48:28.373Z,100.00
2019-02-16T18:52:32.833Z,100.00
2019-02-16T18:57:06.099Z,100.00
2019-02-16T18:59:14.666Z,100.00
2019-02-16T19:01:29.170Z,100.00
2019-02-16T19:10:38.031Z,100.00
2019-02-16T19:15:01.036Z,100.00
2019-02-16T19:19:30.908Z,100.00
2019-02-16T19:21:30.616Z,100.00
2019-02-16T19:23:37.151Z,100.00
2019-02-16T19:25:24.528Z,100.00
2019-02-16T19:27:35.911Z,100.00
2019-02-16T19:29:29.281Z,100.00
2019-02-16T19:31:28.354Z,100.00
2019-02-16T19:33:23.812Z,100.00
2019-02-16T19:35:44.493Z,100.00
2019-02-16T19:38:01.932Z,100.00
2019-02-16T19:40:03.391Z,100.00
2019-02-16T19:42:00.032Z,100.00
2019-02-16T19:43:56.637Z,100.00
2019-02-16T19:45:53.075Z,100.00
2019-02-16T19:47:54.546Z,100.00
2019-02-16T19:49:43.167Z,100.00
2019-02-16T19:51:36.740Z,100.00
2019-02-16T19:53:25.205Z,100.00
2019-02-16T19:55:31.209Z,100.00
2019-02-16T19:57:46.389Z,100.00
2019-02-16T19:59:38.499Z,100.00
2019-02-16T20:01:37.169Z,100.00
2019-02-16T20:03:30.212Z,100.00
2019-02-16T20:05:32.212Z,100.00
2019-02-16T20:12:37.334Z,100.00
2019-02-16T20:14:32.323Z,100.00
2019-02-16T20:16:33.543Z,100.00
2019-02-16T20:18:46.950Z,100.00
2019-02-16T20:20:50.368Z,100.00
2019-02-16T20:24:46.897Z,100.00
2019-02-16T20:26:49.818Z,100.00
2019-02-16T20:28:55.415Z,100.00
2019-02-16T20:30:41.899Z,100.00
2019-02-16T20:32:47.411Z,100.00
2019-02-16T20:35:02.301Z,100.00
2019-02-16T20:37:01.302Z,100.00
2019-02-16T20:39:07.670Z,100.00
2019-02-16T20:41:21.456Z,100.00
2019-02-16T20:47:59.204Z,100.00
2019-02-16T20:52:22.428Z,100.00
2019-02-16T20:56:37.751Z,100.00
2019-02-16T20:58:36.550Z,100.00
2019-02-16T21:00:28.376Z,100.00
2019-02-16T21:02:25.465Z,100.00
2019-02-16T21:04:14.371Z,100.00
2019-02-16T21:06:15.070Z,100.00
2019-02-16T21:08:10.371Z,100.00
2019-02-16T21:10:06.621Z,100.00
2019-02-16T21:11:58.191Z,100.00
2019-02-16T21:14:00.061Z,100.00
2019-02-16T21:15:54.419Z,100.00
2019-02-16T21:18:02.126Z,100.00
2019-02-16T21:20:18.838Z,100.00
2019-02-16T21:22:13.788Z,100.00
2019-02-16T21:24:26.810Z,100.00
2019-02-16T21:26:21.308Z,100.00
2019-02-16T21:28:16.075Z,100.00
2019-02-16T21:30:16.480Z,100.00
2019-02-16T21:32:08.753Z,100.00
2019-02-16T21:34:11.025Z,100.00
2019-02-16T21:36:22.317Z,100.00
2019-02-16T21:38:15.718Z,100.00
2019-02-16T21:45:30.395Z,100.00
2019-02-16T21:47:32.779Z,100.00
2019-02-16T21:51:55.719Z,100.00
2019-02-16T21:54:10.611Z,100.00
2019-02-16T21:56:27.393Z,100.00
2019-02-16T21:58:43.924Z,100.00
2019-02-16T22:03:16.499Z,100.00
2019-02-16T22:05:18.621Z,100.00
2019-02-16T22:07:04.329Z,100.00
2019-02-16T22:09:01.531Z,100.00
2019-02-16T22:10:54.075Z,100.00
2019-02-16T22:12:40.358Z,100.00
2019-02-16T22:14:30.913Z,100.00
2019-02-16T22:16:07.557Z,100.00
2019-02-16T22:18:22.010Z,100.00
2019-02-16T22:24:04.790Z,100.00
2019-02-16T22:25:55.391Z,100.00
2019-02-16T22:32:07.417Z,100.00
2019-02-16T22:33:57.859Z,100.00
2019-02-16T22:35:34.574Z,100.00
2019-02-16T22:37:12.474Z,100.00
2019-02-16T22:43:20.064Z,100.00
2019-02-16T22:44:57.760Z,100.00
2019-02-16T22:46:41.020Z,100.00
2019-02-16T22:48:17.799Z,100.00
2019-02-16T22:49:59.071Z,100.00
2019-02-16T22:51:37.708Z,100.00
2019-02-16T22:53:16.740Z,100.00
2019-02-16T22:54:56.085Z,100.00
2019-02-16T22:56:33.059Z,100.00
2019-02-16T22:58:09.897Z,100.00
2019-02-16T22:59:45.416Z,100.00
2019-02-16T23:01:21.339Z,100.00
2019-02-16T23:03:05.927Z,100.00
2019-02-16T23:04:41.336Z,100.00
2019-02-16T23:06:37.826Z,100.00
2019-02-16T23:08:13.441Z,100.00
2019-02-16T23:09:51.629Z,100.00
2019-02-16T23:11:59.698Z,100.00
2019-02-16T23:13:40.800Z,100.00
2019-02-16T23:15:30.808Z,100.00
2019-02-16T23:19:58.783Z,100.00
2019-02-16T23:25:33.079Z,100.00
2019-02-16T23:27:08.536Z,100.00
2019-02-16T23:28:47.167Z,100.00
2019-02-16T23:30:41.139Z,100.00
2019-02-16T23:34:49.868Z,100.00
2019-02-16T23:40:07.289Z,100.00
2019-02-16T23:42:22.517Z,100.00
2019-02-16T23:44:02.291Z,100.00
2019-02-16T23:47:57.948Z,100.00
2019-02-16T23:49:33.007Z,100.00
2019-02-16T23:51:08.888Z,100.00
2019-02-16T23:52:44.100Z,100.00
2019-02-16T23:54:22.148Z,100.00
2019-02-16T23:55:57.359Z,100.00
2019-02-16T23:57:36.804Z,100.00
2019-02-16T23:59:18.624Z,100.00
